Terminal Aerodrome Forecast
Issued by NWS

Current Version | Previous Version | Graphics & Text | Print | Product List | Glossary On
Versions: 1 2 3 4 5 6 7 8 9 10 11 12 13 14 15 16 17 18 19
000
FTUS41 KRLX 220200 AAA
TAFCKB
TAF AMD
KCKB 220252Z 2203/2224 00000KT P6SM SKC
     FM220900 00000KT P6SM FEW050
     FM221100 11004KT P6SM BKN035
     FM221900 VRB03KT P6SM BKN025=

USA.gov is the U.S. government's official web portal to all federal, state and local government web resources and services.